sensor_id;sensor_type;location;lat;lon;timestamp;temperature;humidity
37412;DHT22;23278;52.110;6.050;2023-04-23T00:01:03;9.00;99.90
37412;DHT22;23278;52.110;6.050;2023-04-23T00:03:31;8.90;99.90
37412;DHT22;23278;52.110;6.050;2023-04-23T00:06:05;9.00;99.90
37412;DHT22;23278;52.110;6.050;2023-04-23T00:08:31;8.90;99.90
37412;DHT22;23278;52.110;6.050;2023-04-23T00:10:57;8.90;99.90
37412;DHT22;23278;52.110;6.050;2023-04-23T00:13:24;8.90;99.90
37412;DHT22;23278;52.110;6.050;2023-04-23T00:15:50;8.90;99.90
37412;DHT22;23278;52.110;6.050;2023-04-23T00:18:16;8.90;99.90
37412;DHT22;23278;52.110;6.050;2023-04-23T00:20:42;8.90;99.90
37412;DHT22;23278;52.110;6.050;2023-04-23T00:23:08;8.90;99.90
37412;DHT22;23278;52.110;6.050;2023-04-23T00:25:34;8.90;99.90
37412;DHT22;23278;52.110;6.050;2023-04-23T00:28:00;8.90;99.90
37412;DHT22;23278;52.110;6.050;2023-04-23T00:30:26;8.90;99.90
37412;DHT22;23278;52.110;6.050;2023-04-23T00:32:52;8.90;99.90
37412;DHT22;23278;52.110;6.050;2023-04-23T00:35:18;8.90;99.90
37412;DHT22;23278;52.110;6.050;2023-04-23T00:37:45;8.90;99.90
37412;DHT22;23278;52.110;6.050;2023-04-23T00:40:11;8.80;99.90
37412;DHT22;23278;52.110;6.050;2023-04-23T00:42:38;8.80;99.90
37412;DHT22;23278;52.110;6.050;2023-04-23T00:45:07;8.80;99.90
37412;DHT22;23278;52.110;6.050;2023-04-23T00:50:00;8.80;99.90
37412;DHT22;23278;52.110;6.050;2023-04-23T00:52:26;8.80;99.90
37412;DHT22;23278;52.110;6.050;2023-04-23T00:54:54;8.80;99.90
37412;DHT22;23278;52.110;6.050;2023-04-23T00:57:21;8.80;99.90
37412;DHT22;23278;52.110;6.050;2023-04-23T00:59:48;8.80;99.90
37412;DHT22;23278;52.110;6.050;2023-04-23T01:02:14;8.70;99.90
37412;DHT22;23278;52.110;6.050;2023-04-23T01:04:42;8.70;99.90
37412;DHT22;23278;52.110;6.050;2023-04-23T01:07:10;8.70;99.90
37412;DHT22;23278;52.110;6.050;2023-04-23T01:09:37;8.60;99.90
37412;DHT22;23278;52.110;6.050;2023-04-23T01:12:07;8.60;99.90
37412;DHT22;23278;52.110;6.050;2023-04-23T01:14:36;8.60;99.90
37412;DHT22;23278;52.110;6.050;2023-04-23T01:17:02;8.50;99.90
37412;DHT22;23278;52.110;6.050;2023-04-23T01:19:28;8.50;99.90
37412;DHT22;23278;52.110;6.050;2023-04-23T01:21:55;8.50;99.90
37412;DHT22;23278;52.110;6.050;2023-04-23T01:24:21;8.50;99.90
37412;DHT22;23278;52.110;6.050;2023-04-23T01:26:47;8.50;99.90
37412;DHT22;23278;52.110;6.050;2023-04-23T01:29:13;8.40;99.90
37412;DHT22;23278;52.110;6.050;2023-04-23T01:31:39;8.40;99.90
37412;DHT22;23278;52.110;6.050;2023-04-23T01:34:09;8.40;99.90
37412;DHT22;23278;52.110;6.050;2023-04-23T01:36:35;8.40;99.90
37412;DHT22;23278;52.110;6.050;2023-04-23T01:39:02;8.40;99.90
37412;DHT22;23278;52.110;6.050;2023-04-23T01:41:28;8.40;99.90
37412;DHT22;23278;52.110;6.050;2023-04-23T01:43:56;8.40;99.90
37412;DHT22;23278;52.110;6.050;2023-04-23T01:46:22;8.40;99.90
37412;DHT22;23278;52.110;6.050;2023-04-23T01:48:48;8.40;99.90
37412;DHT22;23278;52.110;6.050;2023-04-23T01:51:14;8.50;99.90
37412;DHT22;23278;52.110;6.050;2023-04-23T01:53:40;8.70;99.90
37412;DHT22;23278;52.110;6.050;2023-04-23T01:56:07;8.80;99.90
37412;DHT22;23278;52.110;6.050;2023-04-23T01:58:34;8.90;99.90
37412;DHT22;23278;52.110;6.050;2023-04-23T02:01:01;9.10;99.90
37412;DHT22;23278;52.110;6.050;2023-04-23T02:03:30;9.10;99.90
37412;DHT22;23278;52.110;6.050;2023-04-23T02:05:59;9.20;99.90
37412;DHT22;23278;52.110;6.050;2023-04-23T02:08:26;9.30;99.90
37412;DHT22;23278;52.110;6.050;2023-04-23T02:10:52;9.30;99.90
37412;DHT22;23278;52.110;6.050;2023-04-23T02:13:18;9.40;99.90
37412;DHT22;23278;52.110;6.050;2023-04-23T02:15:44;9.40;99.90
37412;DHT22;23278;52.110;6.050;2023-04-23T02:18:10;9.40;99.90
37412;DHT22;23278;52.110;6.050;2023-04-23T02:20:36;9.40;99.90
37412;DHT22;23278;52.110;6.050;2023-04-23T02:23:09;9.30;99.90
37412;DHT22;23278;52.110;6.050;2023-04-23T02:25:35;9.20;99.90
37412;DHT22;23278;52.110;6.050;2023-04-23T02:28:04;9.20;99.90
37412;DHT22;23278;52.110;6.050;2023-04-23T02:30:35;9.20;99.90
37412;DHT22;23278;52.110;6.050;2023-04-23T02:33:00;9.20;99.90
37412;DHT22;23278;52.110;6.050;2023-04-23T02:35:26;9.30;99.90
37412;DHT22;23278;52.110;6.050;2023-04-23T02:37:55;9.30;99.90
37412;DHT22;23278;52.110;6.050;2023-04-23T02:40:21;9.40;99.90
37412;DHT22;23278;52.110;6.050;2023-04-23T02:42:48;9.40;99.90
37412;DHT22;23278;52.110;6.050;2023-04-23T02:45:15;9.40;99.90
37412;DHT22;23278;52.110;6.050;2023-04-23T02:47:41;9.50;99.90
37412;DHT22;23278;52.110;6.050;2023-04-23T02:50:07;9.50;99.90
37412;DHT22;23278;52.110;6.050;2023-04-23T02:52:33;9.40;99.90
37412;DHT22;23278;52.110;6.050;2023-04-23T02:55:00;9.50;99.90
37412;DHT22;23278;52.110;6.050;2023-04-23T02:57:27;9.50;99.90
37412;DHT22;23278;52.110;6.050;2023-04-23T02:59:53;9.40;99.90
37412;DHT22;23278;52.110;6.050;2023-04-23T03:02:23;9.30;99.90
37412;DHT22;23278;52.110;6.050;2023-04-23T03:04:49;9.30;99.90
37412;DHT22;23278;52.110;6.050;2023-04-23T03:07:16;9.20;99.90
37412;DHT22;23278;52.110;6.050;2023-04-23T03:09:42;9.10;99.90
37412;DHT22;23278;52.110;6.050;2023-04-23T03:12:08;9.00;99.90
37412;DHT22;23278;52.110;6.050;2023-04-23T03:14:34;9.00;99.90
37412;DHT22;23278;52.110;6.050;2023-04-23T03:17:01;8.90;99.90
37412;DHT22;23278;52.110;6.050;2023-04-23T03:19:29;8.90;99.90
37412;DHT22;23278;52.110;6.050;2023-04-23T03:21:55;8.90;99.90
37412;DHT22;23278;52.110;6.050;2023-04-23T03:24:21;8.80;99.90
37412;DHT22;23278;52.110;6.050;2023-04-23T03:26:48;8.80;99.90
37412;DHT22;23278;52.110;6.050;2023-04-23T03:29:14;8.80;99.90
37412;DHT22;23278;52.110;6.050;2023-04-23T03:31:40;8.80;99.90
37412;DHT22;23278;52.110;6.050;2023-04-23T03:34:08;8.70;99.90
37412;DHT22;23278;52.110;6.050;2023-04-23T03:36:35;8.70;99.90
37412;DHT22;23278;52.110;6.050;2023-04-23T03:39:01;8.70;99.90
37412;DHT22;23278;52.110;6.050;2023-04-23T03:41:35;8.70;99.90
37412;DHT22;23278;52.110;6.050;2023-04-23T03:44:01;8.60;99.90
37412;DHT22;23278;52.110;6.050;2023-04-23T03:46:42;8.60;99.90
37412;DHT22;23278;52.110;6.050;2023-04-23T03:49:09;8.50;99.90
37412;DHT22;23278;52.110;6.050;2023-04-23T03:51:35;8.50;99.90
37412;DHT22;23278;52.110;6.050;2023-04-23T03:54:01;8.50;99.90
37412;DHT22;23278;52.110;6.050;2023-04-23T03:56:35;8.40;99.90
37412;DHT22;23278;52.110;6.050;2023-04-23T03:59:11;8.40;99.90
37412;DHT22;23278;52.110;6.050;2023-04-23T04:01:37;8.40;99.90
37412;DHT22;23278;52.110;6.050;2023-04-23T04:04:03;8.40;99.90
37412;DHT22;23278;52.110;6.050;2023-04-23T04:06:31;8.40;99.90
37412;DHT22;23278;52.110;6.050;2023-04-23T04:08:57;8.50;99.90
37412;DHT22;23278;52.110;6.050;2023-04-23T04:11:23;8.50;99.90
37412;DHT22;23278;52.110;6.050;2023-04-23T04:13:49;8.60;99.90
37412;DHT22;23278;52.110;6.050;2023-04-23T04:16:14;8.60;99.90
37412;DHT22;23278;52.110;6.050;2023-04-23T04:18:40;8.70;99.90
37412;DHT22;23278;52.110;6.050;2023-04-23T04:21:06;8.70;99.90
37412;DHT22;23278;52.110;6.050;2023-04-23T04:23:32;8.70;99.90
37412;DHT22;23278;52.110;6.050;2023-04-23T04:25:59;8.80;99.90
37412;DHT22;23278;52.110;6.050;2023-04-23T04:28:25;8.90;99.90
37412;DHT22;23278;52.110;6.050;2023-04-23T04:30:52;8.90;99.90
37412;DHT22;23278;52.110;6.050;2023-04-23T04:33:19;9.00;99.90
37412;DHT22;23278;52.110;6.050;2023-04-23T04:35:45;9.00;99.90
37412;DHT22;23278;52.110;6.050;2023-04-23T04:38:13;8.90;99.90
37412;DHT22;23278;52.110;6.050;2023-04-23T04:40:40;8.80;99.90
37412;DHT22;23278;52.110;6.050;2023-04-23T04:43:06;8.80;99.90
37412;DHT22;23278;52.110;6.050;2023-04-23T04:45:32;8.80;99.90
37412;DHT22;23278;52.110;6.050;2023-04-23T04:47:58;8.90;99.90
37412;DHT22;23278;52.110;6.050;2023-04-23T04:50:24;8.90;99.90
37412;DHT22;23278;52.110;6.050;2023-04-23T04:52:50;8.90;99.90
37412;DHT22;23278;52.110;6.050;2023-04-23T04:55:16;8.80;99.90
37412;DHT22;23278;52.110;6.050;2023-04-23T04:57:42;8.90;99.90
37412;DHT22;23278;52.110;6.050;2023-04-23T05:00:19;8.80;99.90
37412;DHT22;23278;52.110;6.050;2023-04-23T05:02:51;8.90;99.90
37412;DHT22;23278;52.110;6.050;2023-04-23T05:05:18;9.00;99.90
37412;DHT22;23278;52.110;6.050;2023-04-23T05:07:45;9.10;99.90
37412;DHT22;23278;52.110;6.050;2023-04-23T05:10:11;9.20;99.90
37412;DHT22;23278;52.110;6.050;2023-04-23T05:12:37;9.40;99.90
37412;DHT22;23278;52.110;6.050;2023-04-23T05:15:07;9.50;99.90
37412;DHT22;23278;52.110;6.050;2023-04-23T05:17:34;9.60;99.90
37412;DHT22;23278;52.110;6.050;2023-04-23T05:20:00;9.70;99.90
37412;DHT22;23278;52.110;6.050;2023-04-23T05:22:26;9.80;99.90
37412;DHT22;23278;52.110;6.050;2023-04-23T05:24:52;9.80;99.90
37412;DHT22;23278;52.110;6.050;2023-04-23T05:27:17;9.90;99.90
37412;DHT22;23278;52.110;6.050;2023-04-23T05:29:44;10.00;99.90
37412;DHT22;23278;52.110;6.050;2023-04-23T05:32:10;10.10;99.90
37412;DHT22;23278;52.110;6.050;2023-04-23T05:34:36;10.10;99.90
37412;DHT22;23278;52.110;6.050;2023-04-23T05:37:01;10.10;99.90
37412;DHT22;23278;52.110;6.050;2023-04-23T05:39:27;10.20;99.90
37412;DHT22;23278;52.110;6.050;2023-04-23T05:41:53;10.20;99.90
37412;DHT22;23278;52.110;6.050;2023-04-23T05:44:19;10.20;99.90
37412;DHT22;23278;52.110;6.050;2023-04-23T05:46:45;10.30;99.90
37412;DHT22;23278;52.110;6.050;2023-04-23T05:49:11;10.30;99.90
37412;DHT22;23278;52.110;6.050;2023-04-23T05:51:37;10.30;99.90
37412;DHT22;23278;52.110;6.050;2023-04-23T05:54:03;10.40;99.90
37412;DHT22;23278;52.110;6.050;2023-04-23T05:56:29;10.40;99.90
37412;DHT22;23278;52.110;6.050;2023-04-23T05:58:54;10.40;99.90
37412;DHT22;23278;52.110;6.050;2023-04-23T06:01:20;10.40;99.90
37412;DHT22;23278;52.110;6.050;2023-04-23T06:03:46;10.30;99.90
37412;DHT22;23278;52.110;6.050;2023-04-23T06:06:13;10.20;99.90
37412;DHT22;23278;52.110;6.050;2023-04-23T06:08:39;10.10;99.90
37412;DHT22;23278;52.110;6.050;2023-04-23T06:11:05;10.20;99.90
37412;DHT22;23278;52.110;6.050;2023-04-23T06:13:31;10.30;99.90
37412;DHT22;23278;52.110;6.050;2023-04-23T06:15:57;10.40;99.90
37412;DHT22;23278;52.110;6.050;2023-04-23T06:18:23;10.40;99.90
37412;DHT22;23278;52.110;6.050;2023-04-23T06:20:49;10.40;99.90
37412;DHT22;23278;52.110;6.050;2023-04-23T06:23:16;10.20;99.90
37412;DHT22;23278;52.110;6.050;2023-04-23T06:25:42;10.20;99.90
37412;DHT22;23278;52.110;6.050;2023-04-23T06:28:08;10.10;99.90
37412;DHT22;23278;52.110;6.050;2023-04-23T06:30:45;10.10;99.90
37412;DHT22;23278;52.110;6.050;2023-04-23T06:33:11;10.10;99.90
37412;DHT22;23278;52.110;6.050;2023-04-23T06:35:37;10.10;99.90
37412;DHT22;23278;52.110;6.050;2023-04-23T06:38:03;10.20;99.90
37412;DHT22;23278;52.110;6.050;2023-04-23T06:40:29;10.20;99.90
37412;DHT22;23278;52.110;6.050;2023-04-23T06:42:54;10.30;99.90
37412;DHT22;23278;52.110;6.050;2023-04-23T06:45:43;10.30;99.90
37412;DHT22;23278;52.110;6.050;2023-04-23T06:48:09;10.40;99.90
37412;DHT22;23278;52.110;6.050;2023-04-23T06:50:35;10.40;99.90
37412;DHT22;23278;52.110;6.050;2023-04-23T06:53:01;10.50;99.90
37412;DHT22;23278;52.110;6.050;2023-04-23T06:55:27;10.50;99.90
37412;DHT22;23278;52.110;6.050;2023-04-23T06:57:54;10.60;99.90
37412;DHT22;23278;52.110;6.050;2023-04-23T07:00:22;10.70;99.90
37412;DHT22;23278;52.110;6.050;2023-04-23T07:02:48;10.80;99.90
37412;DHT22;23278;52.110;6.050;2023-04-23T07:05:16;10.80;99.90
37412;DHT22;23278;52.110;6.050;2023-04-23T07:07:42;10.90;99.90
37412;DHT22;23278;52.110;6.050;2023-04-23T07:10:10;10.90;99.90
37412;DHT22;23278;52.110;6.050;2023-04-23T07:12:37;11.00;99.90
37412;DHT22;23278;52.110;6.050;2023-04-23T07:15:04;11.10;99.90
37412;DHT22;23278;52.110;6.050;2023-04-23T07:17:31;11.10;99.90
37412;DHT22;23278;52.110;6.050;2023-04-23T07:19:57;11.20;99.90
37412;DHT22;23278;52.110;6.050;2023-04-23T07:22:24;11.30;99.90
37412;DHT22;23278;52.110;6.050;2023-04-23T07:24:51;11.30;99.90
37412;DHT22;23278;52.110;6.050;2023-04-23T07:27:17;11.40;99.90
37412;DHT22;23278;52.110;6.050;2023-04-23T07:29:44;11.50;99.90
37412;DHT22;23278;52.110;6.050;2023-04-23T07:32:10;11.50;99.90
37412;DHT22;23278;52.110;6.050;2023-04-23T07:34:35;11.60;99.90
37412;DHT22;23278;52.110;6.050;2023-04-23T07:37:02;11.70;99.90
37412;DHT22;23278;52.110;6.050;2023-04-23T07:39:28;11.70;99.90
37412;DHT22;23278;52.110;6.050;2023-04-23T07:41:54;11.80;99.90
37412;DHT22;23278;52.110;6.050;2023-04-23T07:44:21;11.90;99.90
37412;DHT22;23278;52.110;6.050;2023-04-23T07:46:47;12.00;99.90
37412;DHT22;23278;52.110;6.050;2023-04-23T07:49:13;12.00;99.90
37412;DHT22;23278;52.110;6.050;2023-04-23T07:51:39;12.10;99.90
37412;DHT22;23278;52.110;6.050;2023-04-23T07:54:07;12.20;99.90
37412;DHT22;23278;52.110;6.050;2023-04-23T07:56:33;12.30;99.90
37412;DHT22;23278;52.110;6.050;2023-04-23T07:59:01;12.40;99.90
37412;DHT22;23278;52.110;6.050;2023-04-23T08:01:27;12.50;99.90
37412;DHT22;23278;52.110;6.050;2023-04-23T08:03:53;12.60;99.90
37412;DHT22;23278;52.110;6.050;2023-04-23T08:06:21;12.70;99.90
37412;DHT22;23278;52.110;6.050;2023-04-23T08:08:48;12.90;99.90
37412;DHT22;23278;52.110;6.050;2023-04-23T08:11:15;13.00;99.90
37412;DHT22;23278;52.110;6.050;2023-04-23T08:13:41;13.00;99.90
37412;DHT22;23278;52.110;6.050;2023-04-23T08:16:07;13.10;99.90
37412;DHT22;23278;52.110;6.050;2023-04-23T08:18:33;13.30;99.90
37412;DHT22;23278;52.110;6.050;2023-04-23T08:21:00;13.40;99.90
37412;DHT22;23278;52.110;6.050;2023-04-23T08:23:26;13.50;99.90
37412;DHT22;23278;52.110;6.050;2023-04-23T08:25:52;13.60;99.90
37412;DHT22;23278;52.110;6.050;2023-04-23T08:28:18;13.70;99.90
37412;DHT22;23278;52.110;6.050;2023-04-23T08:30:45;13.80;99.90
37412;DHT22;23278;52.110;6.050;2023-04-23T08:33:11;13.90;99.90
37412;DHT22;23278;52.110;6.050;2023-04-23T08:35:37;14.00;99.90
37412;DHT22;23278;52.110;6.050;2023-04-23T08:38:03;14.20;99.90
37412;DHT22;23278;52.110;6.050;2023-04-23T08:40:31;14.30;99.90
37412;DHT22;23278;52.110;6.050;2023-04-23T08:43:01;14.50;99.90
37412;DHT22;23278;52.110;6.050;2023-04-23T08:45:28;14.60;99.90
37412;DHT22;23278;52.110;6.050;2023-04-23T08:47:58;14.80;99.90
37412;DHT22;23278;52.110;6.050;2023-04-23T08:50:24;15.00;99.90
37412;DHT22;23278;52.110;6.050;2023-04-23T08:52:55;15.20;99.90
37412;DHT22;23278;52.110;6.050;2023-04-23T08:55:21;15.40;99.90
37412;DHT22;23278;52.110;6.050;2023-04-23T08:57:48;15.50;99.90
37412;DHT22;23278;52.110;6.050;2023-04-23T09:00:16;15.90;99.80
37412;DHT22;23278;52.110;6.050;2023-04-23T09:02:45;16.20;98.60
37412;DHT22;23278;52.110;6.050;2023-04-23T09:05:12;16.60;97.90
37412;DHT22;23278;52.110;6.050;2023-04-23T09:07:38;17.00;96.80
37412;DHT22;23278;52.110;6.050;2023-04-23T09:10:09;17.50;96.00
37412;DHT22;23278;52.110;6.050;2023-04-23T09:12:40;18.00;95.10
37412;DHT22;23278;52.110;6.050;2023-04-23T09:15:07;18.50;94.50
37412;DHT22;23278;52.110;6.050;2023-04-23T09:17:37;18.90;93.20
37412;DHT22;23278;52.110;6.050;2023-04-23T09:20:03;19.00;92.10
37412;DHT22;23278;52.110;6.050;2023-04-23T09:22:59;19.10;90.30
37412;DHT22;23278;52.110;6.050;2023-04-23T09:25:26;18.70;89.60
37412;DHT22;23278;52.110;6.050;2023-04-23T09:27:52;18.80;90.20
37412;DHT22;23278;52.110;6.050;2023-04-23T09:30:18;19.20;89.80
37412;DHT22;23278;52.110;6.050;2023-04-23T09:32:45;19.40;87.70
37412;DHT22;23278;52.110;6.050;2023-04-23T09:35:14;19.40;86.80
37412;DHT22;23278;52.110;6.050;2023-04-23T09:37:46;19.80;84.70
37412;DHT22;23278;52.110;6.050;2023-04-23T09:40:17;20.00;80.30
37412;DHT22;23278;52.110;6.050;2023-04-23T09:42:48;19.90;78.50
37412;DHT22;23278;52.110;6.050;2023-04-23T09:45:15;20.20;75.70
37412;DHT22;23278;52.110;6.050;2023-04-23T09:47:48;20.20;74.20
37412;DHT22;23278;52.110;6.050;2023-04-23T09:50:15;20.10;75.00
37412;DHT22;23278;52.110;6.050;2023-04-23T09:52:41;20.50;74.20
37412;DHT22;23278;52.110;6.050;2023-04-23T09:55:07;20.40;72.40
37412;DHT22;23278;52.110;6.050;2023-04-23T09:57:36;20.70;69.70
37412;DHT22;23278;52.110;6.050;2023-04-23T10:00:18;21.30;67.10
37412;DHT22;23278;52.110;6.050;2023-04-23T10:02:48;21.50;65.00
37412;DHT22;23278;52.110;6.050;2023-04-23T10:05:19;21.70;62.60
37412;DHT22;23278;52.110;6.050;2023-04-23T10:07:46;22.30;61.90
37412;DHT22;23278;52.110;6.050;2023-04-23T10:10:18;22.70;61.00
37412;DHT22;23278;52.110;6.050;2023-04-23T10:12:45;22.70;56.10
37412;DHT22;23278;52.110;6.050;2023-04-23T10:15:12;22.40;54.70
37412;DHT22;23278;52.110;6.050;2023-04-23T10:17:39;22.10;55.80
37412;DHT22;23278;52.110;6.050;2023-04-23T10:20:09;22.40;54.70
37412;DHT22;23278;52.110;6.050;2023-04-23T10:22:37;22.80;54.30
37412;DHT22;23278;52.110;6.050;2023-04-23T10:25:07;23.40;53.20
37412;DHT22;23278;52.110;6.050;2023-04-23T10:27:43;24.00;52.00
37412;DHT22;23278;52.110;6.050;2023-04-23T10:30:12;24.80;49.60
37412;DHT22;23278;52.110;6.050;2023-04-23T10:32:39;25.90;46.70
37412;DHT22;23278;52.110;6.050;2023-04-23T10:35:07;26.40;45.40
37412;DHT22;23278;52.110;6.050;2023-04-23T10:37:34;26.50;44.40
37412;DHT22;23278;52.110;6.050;2023-04-23T10:40:46;26.00;45.90
37412;DHT22;23278;52.110;6.050;2023-04-23T10:42:54;26.60;44.90
37412;DHT22;23278;52.110;6.050;2023-04-23T10:45:23;27.20;42.60
37412;DHT22;23278;52.110;6.050;2023-04-23T10:47:49;27.20;41.60
37412;DHT22;23278;52.110;6.050;2023-04-23T10:52:51;27.40;42.30
37412;DHT22;23278;52.110;6.050;2023-04-23T10:55:25;27.10;41.80
37412;DHT22;23278;52.110;6.050;2023-04-23T10:58:09;26.20;42.30
37412;DHT22;23278;52.110;6.050;2023-04-23T11:03:45;26.20;42.50
37412;DHT22;23278;52.110;6.050;2023-04-23T11:06:14;26.40;41.80
37412;DHT22;23278;52.110;6.050;2023-04-23T11:08:53;26.10;41.90
37412;DHT22;23278;52.110;6.050;2023-04-23T11:11:39;26.20;42.10
37412;DHT22;23278;52.110;6.050;2023-04-23T11:14:12;26.20;41.20
37412;DHT22;23278;52.110;6.050;2023-04-23T11:16:44;25.50;41.50
37412;DHT22;23278;52.110;6.050;2023-04-23T11:19:11;24.60;42.90
37412;DHT22;23278;52.110;6.050;2023-04-23T11:21:58;24.00;44.10
37412;DHT22;23278;52.110;6.050;2023-04-23T11:24:36;23.60;45.00
37412;DHT22;23278;52.110;6.050;2023-04-23T11:27:16;24.00;45.10
37412;DHT22;23278;52.110;6.050;2023-04-23T11:29:44;24.80;44.90
37412;DHT22;23278;52.110;6.050;2023-04-23T11:32:12;25.40;44.60
37412;DHT22;23278;52.110;6.050;2023-04-23T11:34:39;25.60;43.00
37412;DHT22;23278;52.110;6.050;2023-04-23T11:37:10;25.10;43.60
37412;DHT22;23278;52.110;6.050;2023-04-23T11:39:37;24.80;44.40
37412;DHT22;23278;52.110;6.050;2023-04-23T11:42:09;25.10;44.00
37412;DHT22;23278;52.110;6.050;2023-04-23T11:44:37;25.30;43.60
37412;DHT22;23278;52.110;6.050;2023-04-23T11:47:07;25.00;42.90
37412;DHT22;23278;52.110;6.050;2023-04-23T11:49:33;24.50;43.80
37412;DHT22;23278;52.110;6.050;2023-04-23T11:52:00;24.20;44.00
37412;DHT22;23278;52.110;6.050;2023-04-23T11:54:30;23.80;44.20
37412;DHT22;23278;52.110;6.050;2023-04-23T11:56:56;23.60;45.20
37412;DHT22;23278;52.110;6.050;2023-04-23T11:59:24;23.60;45.40
37412;DHT22;23278;52.110;6.050;2023-04-23T12:01:54;23.80;45.10
37412;DHT22;23278;52.110;6.050;2023-04-23T12:04:22;24.00;44.10
37412;DHT22;23278;52.110;6.050;2023-04-23T12:06:50;24.20;44.00
37412;DHT22;23278;52.110;6.050;2023-04-23T12:09:18;24.40;43.70
37412;DHT22;23278;52.110;6.050;2023-04-23T12:11:44;24.60;43.60
37412;DHT22;23278;52.110;6.050;2023-04-23T12:14:13;24.80;43.50
37412;DHT22;23278;52.110;6.050;2023-04-23T12:19:08;24.50;44.20
37412;DHT22;23278;52.110;6.050;2023-04-23T12:21:34;24.70;44.60
37412;DHT22;23278;52.110;6.050;2023-04-23T12:24:11;25.30;42.70
37412;DHT22;23278;52.110;6.050;2023-04-23T12:26:37;25.70;42.30
37412;DHT22;23278;52.110;6.050;2023-04-23T12:29:03;25.80;41.60
37412;DHT22;23278;52.110;6.050;2023-04-23T12:31:32;25.40;41.80
37412;DHT22;23278;52.110;6.050;2023-04-23T12:34:03;24.90;42.60
37412;DHT22;23278;52.110;6.050;2023-04-23T12:36:29;24.30;43.50
37412;DHT22;23278;52.110;6.050;2023-04-23T12:41:55;23.20;45.90
37412;DHT22;23278;52.110;6.050;2023-04-23T12:44:21;22.90;46.60
37412;DHT22;23278;52.110;6.050;2023-04-23T12:46:58;22.90;47.00
37412;DHT22;23278;52.110;6.050;2023-04-23T12:49:25;23.20;47.10
37412;DHT22;23278;52.110;6.050;2023-04-23T12:51:53;23.60;46.80
37412;DHT22;23278;52.110;6.050;2023-04-23T12:54:25;24.00;46.20
37412;DHT22;23278;52.110;6.050;2023-04-23T12:56:51;24.30;45.10
37412;DHT22;23278;52.110;6.050;2023-04-23T12:59:17;25.20;44.20
37412;DHT22;23278;52.110;6.050;2023-04-23T13:01:43;26.50;42.20
37412;DHT22;23278;52.110;6.050;2023-04-23T13:04:09;27.60;41.20
37412;DHT22;23278;52.110;6.050;2023-04-23T13:06:35;28.80;40.00
37412;DHT22;23278;52.110;6.050;2023-04-23T13:09:01;30.70;38.00
37412;DHT22;23278;52.110;6.050;2023-04-23T13:11:30;31.20;37.00
37412;DHT22;23278;52.110;6.050;2023-04-23T13:13:57;32.20;35.80
37412;DHT22;23278;52.110;6.050;2023-04-23T13:16:23;32.80;35.00
37412;DHT22;23278;52.110;6.050;2023-04-23T13:18:49;33.00;34.60
37412;DHT22;23278;52.110;6.050;2023-04-23T13:21:18;32.90;34.50
37412;DHT22;23278;52.110;6.050;2023-04-23T13:23:44;33.00;34.40
37412;DHT22;23278;52.110;6.050;2023-04-23T13:26:10;33.00;34.00
37412;DHT22;23278;52.110;6.050;2023-04-23T13:28:36;31.80;35.10
37412;DHT22;23278;52.110;6.050;2023-04-23T13:31:02;30.60;36.20
37412;DHT22;23278;52.110;6.050;2023-04-23T13:33:29;29.60;37.60
37412;DHT22;23278;52.110;6.050;2023-04-23T13:35:56;29.70;37.20
37412;DHT22;23278;52.110;6.050;2023-04-23T13:38:24;29.60;37.60
37412;DHT22;23278;52.110;6.050;2023-04-23T13:40:51;29.20;37.90
37412;DHT22;23278;52.110;6.050;2023-04-23T13:43:17;28.90;38.20
37412;DHT22;23278;52.110;6.050;2023-04-23T13:45:43;28.60;38.30
37412;DHT22;23278;52.110;6.050;2023-04-23T13:48:09;27.80;38.80
37412;DHT22;23278;52.110;6.050;2023-04-23T13:50:35;26.90;39.30
37412;DHT22;23278;52.110;6.050;2023-04-23T13:53:01;26.30;40.00
37412;DHT22;23278;52.110;6.050;2023-04-23T13:55:27;25.90;41.00
37412;DHT22;23278;52.110;6.050;2023-04-23T13:57:53;25.60;41.60
37412;DHT22;23278;52.110;6.050;2023-04-23T14:00:23;25.40;41.90
37412;DHT22;23278;52.110;6.050;2023-04-23T14:02:49;24.90;42.50
37412;DHT22;23278;52.110;6.050;2023-04-23T14:05:15;24.50;42.90
37412;DHT22;23278;52.110;6.050;2023-04-23T14:07:41;24.00;43.80
37412;DHT22;23278;52.110;6.050;2023-04-23T14:10:07;23.60;44.60
37412;DHT22;23278;52.110;6.050;2023-04-23T14:12:34;23.30;45.30
37412;DHT22;23278;52.110;6.050;2023-04-23T14:15:00;23.00;45.40
37412;DHT22;23278;52.110;6.050;2023-04-23T14:17:26;22.70;45.80
37412;DHT22;23278;52.110;6.050;2023-04-23T14:19:51;22.50;46.30
37412;DHT22;23278;52.110;6.050;2023-04-23T14:22:17;22.40;46.30
37412;DHT22;23278;52.110;6.050;2023-04-23T14:24:49;22.20;46.30
37412;DHT22;23278;52.110;6.050;2023-04-23T14:27:16;22.10;46.40
37412;DHT22;23278;52.110;6.050;2023-04-23T14:29:50;22.00;46.80
37412;DHT22;23278;52.110;6.050;2023-04-23T14:32:16;21.90;48.20
37412;DHT22;23278;52.110;6.050;2023-04-23T14:34:43;21.70;49.00
37412;DHT22;23278;52.110;6.050;2023-04-23T14:37:09;21.50;49.30
37412;DHT22;23278;52.110;6.050;2023-04-23T14:39:35;21.40;49.20
37412;DHT22;23278;52.110;6.050;2023-04-23T14:42:01;21.20;49.60
37412;DHT22;23278;52.110;6.050;2023-04-23T14:44:27;21.10;47.10
37412;DHT22;23278;52.110;6.050;2023-04-23T14:46:54;20.90;47.30
37412;DHT22;23278;52.110;6.050;2023-04-23T14:49:20;20.70;47.60
37412;DHT22;23278;52.110;6.050;2023-04-23T14:51:47;20.60;47.60
37412;DHT22;23278;52.110;6.050;2023-04-23T14:54:16;20.50;48.00
37412;DHT22;23278;52.110;6.050;2023-04-23T14:56:42;20.50;47.40
37412;DHT22;23278;52.110;6.050;2023-04-23T14:59:08;20.40;48.30
37412;DHT22;23278;52.110;6.050;2023-04-23T15:01:34;20.30;48.50
37412;DHT22;23278;52.110;6.050;2023-04-23T15:04:00;20.20;49.70
37412;DHT22;23278;52.110;6.050;2023-04-23T15:06:26;20.20;50.50
37412;DHT22;23278;52.110;6.050;2023-04-23T15:08:51;20.00;50.80
37412;DHT22;23278;52.110;6.050;2023-04-23T15:11:18;19.80;51.30
37412;DHT22;23278;52.110;6.050;2023-04-23T15:16:27;19.90;51.30
37412;DHT22;23278;52.110;6.050;2023-04-23T15:18:59;19.90;51.80
37412;DHT22;23278;52.110;6.050;2023-04-23T15:21:25;19.80;52.10
37412;DHT22;23278;52.110;6.050;2023-04-23T15:23:51;19.90;52.30
37412;DHT22;23278;52.110;6.050;2023-04-23T15:26:17;19.90;52.10
37412;DHT22;23278;52.110;6.050;2023-04-23T15:28:44;19.80;52.40
37412;DHT22;23278;52.110;6.050;2023-04-23T15:31:10;19.80;51.70
37412;DHT22;23278;52.110;6.050;2023-04-23T15:33:36;19.70;53.90
37412;DHT22;23278;52.110;6.050;2023-04-23T15:36:02;19.40;55.30
37412;DHT22;23278;52.110;6.050;2023-04-23T15:38:28;19.20;56.20
37412;DHT22;23278;52.110;6.050;2023-04-23T15:40:55;18.80;58.80
37412;DHT22;23278;52.110;6.050;2023-04-23T15:43:21;18.50;65.10
37412;DHT22;23278;52.110;6.050;2023-04-23T15:45:47;17.60;80.00
37412;DHT22;23278;52.110;6.050;2023-04-23T15:48:15;16.50;99.90
37412;DHT22;23278;52.110;6.050;2023-04-23T15:50:43;15.70;99.90
37412;DHT22;23278;52.110;6.050;2023-04-23T15:53:09;15.10;99.90